createdAt,value
2023-02-22T00:01:35.543Z,16.45
2023-02-22T00:04:04.671Z,12.40
2023-02-22T00:06:31.188Z,19.30
2023-02-22T00:08:58.922Z,15.73
2023-02-22T00:11:25.984Z,14.45
2023-02-22T00:13:52.644Z,14.32
2023-02-22T00:16:23.801Z,13.95
2023-02-22T00:18:50.372Z,16.60
2023-02-22T00:21:18.033Z,14.38
2023-02-22T00:23:46.759Z,14.52
2023-02-22T00:26:19.177Z,15.63
2023-02-22T00:28:51.225Z,14.13
2023-02-22T00:31:19.212Z,14.13
2023-02-22T00:33:46.063Z,19.23
2023-02-22T00:36:13.877Z,15.07
2023-02-22T00:38:41.940Z,12.70
2023-02-22T00:41:09.616Z,16.63
2023-02-22T00:43:36.244Z,12.48
2023-02-22T00:46:02.952Z,20.95
2023-02-22T00:48:29.540Z,14.40
2023-02-22T00:50:56.256Z,16.77
2023-02-22T00:53:25.222Z,33.17
2023-02-22T00:55:52.459Z,32.10
2023-02-22T00:58:19.191Z,30.70
2023-02-22T01:00:46.527Z,25.75
2023-02-22T01:03:18.280Z,26.23
2023-02-22T01:05:45.301Z,25.48
2023-02-22T01:08:13.947Z,22.48
2023-02-22T01:10:40.742Z,23.80
2023-02-22T01:13:09.412Z,21.15
2023-02-22T01:15:39.146Z,23.75
2023-02-22T01:18:06.355Z,23.98
2023-02-22T01:20:33.203Z,18.30
2023-02-22T01:23:03.685Z,22.60
2023-02-22T01:25:31.479Z,18.45
2023-02-22T01:28:00.117Z,16.13
2023-02-22T01:30:30.559Z,19.70
2023-02-22T01:32:57.413Z,15.20
2023-02-22T01:35:28.000Z,21.95
2023-02-22T01:37:54.988Z,23.10
2023-02-22T01:40:36.076Z,22.17
2023-02-22T01:43:14.377Z,16.20
2023-02-22T01:45:44.770Z,25.48
2023-02-22T01:48:29.542Z,18.65
2023-02-22T01:51:01.430Z,19.33
2023-02-22T01:53:42.670Z,17.60
2023-02-22T01:56:10.400Z,15.43
2023-02-22T01:58:41.390Z,20.80
2023-02-22T02:01:09.094Z,18.35
2023-02-22T02:03:38.583Z,18.55
2023-02-22T02:06:08.326Z,19.50
2023-02-22T02:08:42.515Z,15.07
2023-02-22T02:11:09.942Z,21.95
2023-02-22T02:13:37.329Z,32.97
2023-02-22T02:16:04.192Z,23.38
2023-02-22T02:18:32.685Z,20.27
2023-02-22T02:21:37.751Z,17.30
2023-02-22T02:24:28.465Z,21.92
2023-02-22T02:27:27.504Z,23.58
2023-02-22T02:30:12.943Z,22.25
2023-02-22T02:32:52.020Z,22.33
2023-02-22T02:35:34.258Z,18.65
2023-02-22T02:38:41.372Z,19.30
2023-02-22T02:41:18.353Z,18.15
2023-02-22T02:43:58.486Z,19.58
2023-02-22T02:46:51.762Z,20.73
2023-02-22T02:49:25.170Z,23.27
2023-02-22T02:51:54.920Z,21.00
2023-02-22T02:54:23.646Z,20.50
2023-02-22T02:56:50.828Z,18.25
2023-02-22T02:59:32.387Z,23.92
2023-02-22T03:02:13.850Z,24.80
2023-02-22T03:05:03.920Z,22.73
2023-02-22T03:07:53.886Z,22.25
2023-02-22T03:10:44.579Z,17.50
2023-02-22T03:13:32.146Z,19.17
2023-02-22T03:16:30.956Z,16.63
2023-02-22T03:19:10.668Z,20.90
2023-02-22T03:21:48.863Z,17.88
2023-02-22T03:24:25.590Z,20.35
2023-02-22T03:27:04.539Z,21.63
2023-02-22T03:29:35.656Z,20.20
2023-02-22T03:32:06.063Z,16.63
2023-02-22T03:34:46.056Z,18.23
2023-02-22T03:37:22.073Z,19.70
2023-02-22T03:39:52.816Z,17.15
2023-02-22T03:42:24.603Z,21.05
2023-02-22T03:44:53.641Z,17.10
2023-02-22T03:47:28.719Z,19.92
2023-02-22T03:50:07.574Z,19.27
2023-02-22T03:52:36.016Z,19.70
2023-02-22T03:55:04.733Z,23.30
2023-02-22T03:57:38.265Z,25.33
2023-02-22T04:00:08.155Z,23.58
2023-02-22T04:02:35.300Z,20.23
2023-02-22T04:05:01.975Z,24.08
2023-02-22T04:07:28.716Z,25.02
2023-02-22T04:09:55.226Z,25.20
2023-02-22T04:12:21.730Z,17.85
2023-02-22T04:14:48.257Z,21.33
2023-02-22T04:17:14.794Z,19.88
2023-02-22T04:19:41.363Z,21.95
2023-02-22T04:22:07.879Z,21.52
2023-02-22T04:24:34.433Z,26.63
2023-02-22T04:27:00.912Z,25.63
2023-02-22T04:29:27.444Z,22.25
2023-02-22T04:31:53.994Z,23.33
2023-02-22T04:34:20.641Z,20.38
2023-02-22T04:36:47.246Z,22.77
2023-02-22T04:39:13.837Z,22.65
2023-02-22T04:41:40.744Z,21.73
2023-02-22T04:44:07.365Z,30.67
2023-02-22T04:46:33.924Z,28.10
2023-02-22T04:49:00.499Z,19.95
2023-02-22T04:51:27.004Z,23.13
2023-02-22T04:53:53.536Z,26.77
2023-02-22T04:56:20.678Z,20.92
2023-02-22T04:58:47.913Z,29.20
2023-02-22T05:01:16.695Z,27.75
2023-02-22T05:03:43.917Z,25.38
2023-02-22T05:06:12.479Z,23.95
2023-02-22T05:08:38.978Z,26.25
2023-02-22T05:11:05.807Z,38.63
2023-02-22T05:13:32.317Z,32.42
2023-02-22T05:15:58.870Z,24.23
2023-02-22T05:18:25.915Z,23.90
2023-02-22T05:20:52.679Z,31.80
2023-02-22T05:23:19.193Z,22.90
2023-02-22T05:25:46.071Z,21.38
2023-02-22T05:28:14.977Z,22.35
2023-02-22T05:30:41.936Z,24.00
2023-02-22T05:33:09.936Z,23.50
2023-02-22T05:35:37.249Z,29.98
2023-02-22T05:38:04.968Z,28.40
2023-02-22T05:40:31.927Z,40.47
2023-02-22T05:42:59.420Z,47.63
2023-02-22T05:45:27.571Z,27.60
2023-02-22T05:47:55.099Z,29.67
2023-02-22T05:50:22.427Z,37.50
2023-02-22T05:52:49.280Z,40.05
2023-02-22T05:55:18.502Z,33.50
2023-02-22T05:57:45.423Z,33.30
2023-02-22T06:00:17.342Z,42.78
2023-02-22T06:02:43.870Z,31.48
2023-02-22T06:05:10.461Z,28.38
2023-02-22T06:07:36.969Z,30.40
2023-02-22T06:10:03.702Z,32.17
2023-02-22T06:12:30.200Z,38.90
2023-02-22T06:14:56.783Z,37.65
2023-02-22T06:17:23.333Z,38.42
2023-02-22T06:19:49.841Z,44.55
2023-02-22T06:22:18.769Z,41.47
2023-02-22T06:24:45.403Z,79.25
2023-02-22T06:27:11.880Z,41.58
2023-02-22T06:29:38.478Z,32.15
2023-02-22T06:32:05.306Z,30.67
2023-02-22T06:34:32.080Z,28.95
2023-02-22T06:36:59.973Z,29.85
2023-02-22T06:39:26.661Z,34.97
2023-02-22T06:41:55.299Z,28.10
2023-02-22T06:44:21.910Z,32.33
2023-02-22T06:46:51.252Z,30.20
2023-02-22T06:49:19.485Z,30.05
2023-02-22T06:51:46.699Z,37.85
2023-02-22T06:54:13.597Z,44.50
2023-02-22T06:56:40.107Z,43.25
2023-02-22T06:59:06.590Z,30.52
2023-02-22T07:01:33.088Z,32.65
2023-02-22T07:03:59.635Z,36.47
2023-02-22T07:06:26.159Z,32.05
2023-02-22T07:08:52.696Z,33.72
2023-02-22T07:11:19.396Z,38.47
2023-02-22T07:13:45.964Z,28.85
2023-02-22T07:16:12.453Z,31.60
2023-02-22T07:18:39.460Z,28.52
2023-02-22T07:21:06.595Z,32.10
2023-02-22T07:23:33.331Z,34.42
2023-02-22T07:26:01.588Z,42.90
2023-02-22T07:28:28.523Z,38.30
2023-02-22T07:30:55.067Z,35.28
2023-02-22T07:33:21.513Z,38.40
2023-02-22T07:35:50.024Z,38.03
2023-02-22T07:38:19.385Z,31.88
2023-02-22T07:40:46.410Z,31.13
2023-02-22T07:43:19.657Z,27.15
2023-02-22T07:45:47.033Z,30.63
2023-02-22T07:48:17.385Z,36.08
2023-02-22T07:50:44.565Z,26.02
2023-02-22T07:53:20.262Z,24.13
2023-02-22T07:55:50.987Z,33.58
2023-02-22T07:58:22.109Z,33.00
2023-02-22T08:00:48.846Z,28.65
2023-02-22T08:03:17.534Z,30.60
2023-02-22T08:05:49.852Z,24.98
2023-02-22T08:08:19.757Z,20.30
2023-02-22T08:10:46.531Z,20.08
2023-02-22T08:13:13.506Z,24.40
2023-02-22T08:15:41.553Z,24.48
2023-02-22T08:18:13.758Z,24.75
2023-02-22T08:20:42.698Z,24.70
2023-02-22T08:23:10.556Z,18.85
2023-02-22T08:25:37.620Z,19.48
2023-02-22T08:28:07.278Z,16.02
2023-02-22T08:30:39.780Z,19.85
2023-02-22T08:33:06.951Z,22.35
2023-02-22T08:35:34.129Z,23.98
2023-02-22T08:38:05.736Z,20.77
2023-02-22T08:40:35.561Z,19.38
2023-02-22T08:43:02.237Z,19.45
2023-02-22T08:45:29.214Z,19.20
2023-02-22T08:47:56.009Z,27.73
2023-02-22T08:50:25.991Z,20.73
2023-02-22T08:52:55.133Z,16.33
2023-02-22T08:55:23.564Z,18.15
2023-02-22T08:57:50.777Z,18.75
2023-02-22T09:00:19.220Z,14.15
2023-02-22T09:02:45.717Z,15.25
2023-02-22T09:05:12.258Z,13.82
2023-02-22T09:07:42.676Z,13.50
2023-02-22T09:10:15.514Z,20.80
2023-02-22T09:12:42.694Z,16.45
2023-02-22T09:15:10.034Z,15.95
2023-02-22T09:17:37.476Z,12.70
2023-02-22T09:20:09.283Z,12.05
2023-02-22T09:22:35.826Z,17.60
2023-02-22T09:25:11.370Z,14.40
2023-02-22T09:27:43.729Z,12.13
2023-02-22T09:30:18.179Z,14.02
2023-02-22T09:32:44.826Z,16.20
2023-02-22T09:35:11.405Z,15.98
2023-02-22T09:37:37.942Z,15.98
2023-02-22T09:40:09.909Z,15.13
2023-02-22T09:42:45.639Z,17.10
2023-02-22T09:45:23.080Z,11.35
2023-02-22T09:47:56.992Z,14.25
2023-02-22T09:50:35.723Z,14.27
2023-02-22T09:53:05.965Z,16.65
2023-02-22T09:55:42.199Z,15.15
2023-02-22T09:58:19.635Z,10.77
2023-02-22T10:00:51.641Z,17.45
2023-02-22T10:03:22.796Z,13.60
2023-02-22T10:05:56.998Z,13.80
2023-02-22T10:08:31.168Z,13.00
2023-02-22T10:11:16.134Z,12.88
2023-02-22T10:14:01.727Z,12.88
2023-02-22T10:16:37.055Z,11.02
2023-02-22T10:19:22.526Z,9.90
2023-02-22T10:22:20.326Z,11.75
2023-02-22T10:24:59.934Z,9.15
2023-02-22T10:27:37.734Z,7.15
2023-02-22T10:30:24.073Z,11.60
2023-02-22T10:33:13.425Z,9.23
2023-02-22T10:35:41.360Z,10.77
2023-02-22T10:38:17.024Z,10.95
2023-02-22T10:40:51.422Z,10.93
2023-02-22T10:43:18.017Z,8.73
2023-02-22T10:45:44.662Z,7.95
2023-02-22T10:48:18.537Z,10.50
2023-02-22T10:50:47.280Z,9.35
2023-02-22T10:53:17.785Z,11.18
2023-02-22T10:56:22.607Z,11.98
2023-02-22T10:58:54.869Z,13.75
2023-02-22T11:01:26.646Z,9.65
2023-02-22T11:04:03.366Z,13.15
2023-02-22T11:06:31.493Z,11.48
2023-02-22T11:09:24.481Z,7.13
2023-02-22T11:12:08.438Z,6.82
2023-02-22T11:14:35.100Z,13.20
2023-02-22T11:17:07.650Z,9.80
2023-02-22T11:19:36.401Z,13.30
2023-02-22T11:22:05.922Z,11.18
2023-02-22T11:24:47.314Z,7.35
2023-02-22T11:27:33.325Z,11.73
2023-02-22T11:30:11.912Z,12.43
2023-02-22T11:32:47.372Z,12.40
2023-02-22T11:35:37.119Z,11.45
2023-02-22T11:38:34.494Z,12.98
2023-02-22T11:41:15.368Z,9.20
2023-02-22T11:43:43.386Z,10.15
2023-02-22T11:46:16.994Z,13.98
2023-02-22T11:48:53.849Z,12.48
2023-02-22T11:51:36.521Z,10.13
2023-02-22T11:54:25.574Z,14.00
2023-02-22T11:56:58.826Z,13.30
2023-02-22T11:59:38.488Z,10.82
2023-02-22T12:02:30.699Z,12.35
2023-02-22T12:05:26.531Z,14.98
2023-02-22T12:08:13.769Z,14.93
2023-02-22T12:10:58.931Z,14.25
2023-02-22T12:13:49.315Z,12.25
2023-02-22T12:16:46.147Z,11.60
2023-02-22T12:19:33.779Z,15.10
2023-02-22T12:22:08.006Z,10.10
2023-02-22T12:24:51.598Z,16.08
2023-02-22T12:27:33.878Z,26.00
2023-02-22T12:30:07.218Z,10.68
2023-02-22T12:32:52.805Z,10.90
2023-02-22T12:35:22.083Z,15.98
2023-02-22T12:37:53.294Z,13.38
2023-02-22T12:41:00.359Z,11.73
2023-02-22T12:43:36.726Z,11.50
2023-02-22T12:46:10.470Z,9.57
2023-02-22T12:48:49.204Z,9.23
2023-02-22T12:51:28.607Z,14.30
2023-02-22T12:54:05.845Z,10.85
2023-02-22T12:56:41.314Z,12.07
2023-02-22T12:59:19.938Z,11.82
2023-02-22T13:01:52.303Z,11.55
2023-02-22T13:04:21.251Z,10.70
2023-02-22T13:07:10.280Z,14.25
2023-02-22T13:09:59.655Z,20.15
2023-02-22T13:12:52.531Z,14.32
2023-02-22T13:15:40.740Z,10.57
2023-02-22T13:18:19.145Z,12.18
2023-02-22T13:20:53.792Z,10.50
2023-02-22T13:23:34.208Z,9.85
2023-02-22T13:26:25.155Z,12.85
2023-02-22T13:29:04.625Z,15.35
2023-02-22T13:31:53.803Z,11.25
2023-02-22T13:34:40.253Z,11.70
2023-02-22T13:37:41.433Z,8.30
2023-02-22T13:40:20.320Z,10.27
2023-02-22T13:43:16.626Z,8.27
2023-02-22T13:46:00.140Z,10.23
2023-02-22T13:48:54.191Z,14.35
2023-02-22T13:51:50.640Z,9.57
2023-02-22T13:54:24.451Z,8.52
2023-02-22T13:56:52.907Z,9.77
2023-02-22T13:59:34.416Z,10.10
2023-02-22T14:02:04.960Z,14.85
2023-02-22T14:04:31.590Z,9.57
2023-02-22T14:07:03.259Z,9.70
2023-02-22T14:09:52.838Z,9.43
2023-02-22T14:12:31.324Z,7.65
2023-02-22T14:15:30.134Z,9.57
2023-02-22T14:17:57.108Z,12.65
2023-02-22T14:20:38.304Z,9.38
2023-02-22T14:23:31.499Z,10.73
2023-02-22T14:26:11.783Z,10.23
2023-02-22T14:29:09.527Z,13.27
2023-02-22T14:31:44.811Z,11.93
2023-02-22T14:34:38.866Z,7.43
2023-02-22T14:37:18.224Z,7.63
2023-02-22T14:40:21.450Z,11.52
2023-02-22T14:42:51.008Z,7.18
2023-02-22T14:45:29.776Z,8.85
2023-02-22T14:48:27.635Z,7.30
2023-02-22T14:51:19.096Z,7.80
2023-02-22T14:53:51.559Z,8.05
2023-02-22T14:56:23.834Z,9.30
2023-02-22T14:59:15.208Z,8.82
2023-02-22T15:01:55.381Z,9.77
2023-02-22T15:04:29.448Z,10.00
2023-02-22T15:06:58.160Z,11.85
2023-02-22T15:09:30.050Z,12.52
2023-02-22T15:12:03.460Z,9.23
2023-02-22T15:14:33.186Z,12.05
2023-02-22T15:17:03.217Z,8.80
2023-02-22T15:19:32.602Z,10.25
2023-02-22T15:22:02.037Z,10.38
2023-02-22T15:24:33.231Z,14.43
2023-02-22T15:27:06.176Z,11.07
2023-02-22T15:29:38.475Z,8.35
2023-02-22T15:32:33.857Z,10.30
2023-02-22T15:35:27.074Z,11.27
2023-02-22T15:38:21.714Z,11.80
2023-02-22T15:41:00.117Z,8.68
2023-02-22T15:43:28.564Z,8.65
2023-02-22T15:45:56.436Z,12.57
2023-02-22T15:48:23.522Z,11.55
2023-02-22T15:51:20.725Z,11.18
2023-02-22T15:53:49.503Z,9.07
2023-02-22T15:56:26.040Z,16.10
2023-02-22T15:59:00.591Z,12.45
2023-02-22T16:01:27.338Z,10.95
2023-02-22T16:03:58.978Z,12.02
2023-02-22T16:06:37.798Z,10.75
2023-02-22T16:09:10.529Z,14.02
2023-02-22T16:11:43.388Z,13.95
2023-02-22T16:14:31.284Z,15.80
2023-02-22T16:17:35.511Z,20.83
2023-02-22T16:20:22.304Z,15.13
2023-02-22T16:25:19.389Z,16.95
2023-02-22T16:27:52.702Z,14.00
2023-02-22T16:30:24.852Z,14.77
2023-02-22T16:32:54.207Z,14.40
2023-02-22T16:35:21.094Z,15.52
2023-02-22T16:37:50.291Z,13.93
2023-02-22T16:40:26.008Z,15.57
2023-02-22T16:42:52.639Z,14.23
2023-02-22T16:45:21.678Z,18.27
2023-02-22T16:47:51.674Z,14.57
2023-02-22T16:50:18.346Z,14.70
2023-02-22T16:52:44.960Z,15.20
2023-02-22T16:55:17.184Z,14.30
2023-02-22T16:57:44.316Z,15.15
2023-02-22T17:00:21.864Z,11.48
2023-02-22T17:02:48.597Z,18.10
2023-02-22T17:05:16.498Z,12.07
2023-02-22T17:07:43.341Z,15.00
2023-02-22T17:10:18.877Z,15.20
2023-02-22T17:12:50.804Z,18.73
2023-02-22T17:15:24.169Z,13.52
2023-02-22T17:17:52.067Z,15.30
2023-02-22T17:20:30.123Z,16.35
2023-02-22T17:23:02.028Z,15.98
2023-02-22T17:25:32.793Z,13.52
2023-02-22T17:27:59.262Z,18.15
2023-02-22T17:30:25.952Z,15.70
2023-02-22T17:32:52.826Z,13.80
2023-02-22T17:35:23.321Z,19.80
2023-02-22T17:37:50.464Z,18.10
2023-02-22T17:40:17.716Z,19.30
2023-02-22T17:42:45.424Z,21.17
2023-02-22T17:45:14.070Z,18.73
2023-02-22T17:47:44.144Z,22.25
2023-02-22T17:50:12.083Z,24.25
2023-02-22T17:52:38.861Z,21.63
2023-02-22T17:55:06.537Z,22.58
2023-02-22T17:57:33.582Z,19.17
2023-02-22T18:00:02.629Z,17.05
2023-02-22T18:02:29.224Z,17.42
2023-02-22T18:04:55.804Z,13.35
2023-02-22T18:07:22.574Z,23.00
2023-02-22T18:09:49.200Z,25.45
2023-02-22T18:12:15.737Z,11.25
2023-02-22T18:14:42.353Z,13.48
2023-02-22T18:17:08.892Z,17.95
2023-02-22T18:19:35.431Z,19.60
2023-02-22T18:22:03.093Z,35.08
2023-02-22T18:24:34.370Z,27.58
2023-02-22T18:27:01.507Z,24.80
2023-02-22T18:29:29.077Z,24.15
2023-02-22T18:31:56.447Z,23.38
2023-02-22T18:34:26.188Z,21.58
2023-02-22T18:36:52.729Z,24.40
2023-02-22T18:39:19.363Z,24.42
2023-02-22T18:41:48.691Z,25.15
2023-02-22T18:44:16.273Z,21.23
2023-02-22T18:46:43.666Z,29.92
2023-02-22T18:49:14.206Z,25.52
2023-02-22T18:51:43.585Z,21.75
2023-02-22T18:54:12.436Z,23.05
2023-02-22T18:56:40.359Z,28.88
2023-02-22T18:59:12.170Z,26.98
2023-02-22T19:01:40.926Z,17.77
2023-02-22T19:04:09.898Z,24.48
2023-02-22T19:06:37.205Z,26.33
2023-02-22T19:09:04.880Z,26.73
2023-02-22T19:11:31.380Z,22.10
2023-02-22T19:13:58.457Z,27.25
2023-02-22T19:16:27.173Z,27.58
2023-02-22T19:18:57.517Z,19.33
2023-02-22T19:21:26.163Z,24.30
2023-02-22T19:23:52.746Z,24.25
2023-02-22T19:26:25.941Z,21.83
2023-02-22T19:28:54.538Z,26.70
2023-02-22T19:31:31.589Z,27.90
2023-02-22T19:34:03.975Z,20.08
2023-02-22T19:36:31.106Z,15.90
2023-02-22T19:39:01.785Z,23.15
2023-02-22T19:41:29.561Z,15.50
2023-02-22T19:43:56.195Z,20.02
2023-02-22T19:46:25.078Z,16.67
2023-02-22T19:48:52.982Z,13.60
2023-02-22T19:51:21.290Z,26.42
2023-02-22T19:53:47.824Z,24.95
2023-02-22T19:56:17.001Z,26.85
2023-02-22T19:58:46.186Z,21.05
2023-02-22T20:01:13.654Z,19.92
2023-02-22T20:03:42.424Z,21.58
2023-02-22T20:06:12.478Z,25.83
2023-02-22T20:08:42.248Z,33.10
2023-02-22T20:11:10.754Z,21.88
2023-02-22T20:13:38.929Z,19.85
2023-02-22T20:16:06.262Z,27.08
2023-02-22T20:18:33.066Z,23.25
2023-02-22T20:21:00.869Z,13.63
2023-02-22T20:23:27.492Z,21.00
2023-02-22T20:25:55.918Z,19.77
2023-02-22T20:28:24.437Z,31.77
2023-02-22T20:30:51.927Z,21.58
2023-02-22T20:33:19.604Z,23.02
2023-02-22T20:35:47.032Z,27.35
2023-02-22T20:38:14.591Z,23.42
2023-02-22T20:40:42.719Z,25.52
2023-02-22T20:43:10.237Z,22.83
2023-02-22T20:45:38.045Z,27.30
2023-02-22T20:48:05.731Z,24.48
2023-02-22T20:50:33.217Z,27.83
2023-02-22T20:52:59.750Z,25.67
2023-02-22T20:55:26.252Z,22.98
2023-02-22T20:57:52.760Z,22.90
2023-02-22T21:00:19.295Z,24.98
2023-02-22T21:02:46.850Z,23.75
2023-02-22T21:05:13.840Z,23.88
2023-02-22T21:07:40.549Z,23.20
2023-02-22T21:10:07.190Z,22.13
2023-02-22T21:12:34.971Z,20.27
2023-02-22T21:15:01.530Z,27.02
2023-02-22T21:17:31.017Z,20.73
2023-02-22T21:19:58.446Z,26.95
2023-02-22T21:22:25.403Z,26.25
2023-02-22T21:24:52.216Z,23.77
2023-02-22T21:27:18.927Z,18.80
2023-02-22T21:29:45.550Z,26.67
2023-02-22T21:32:13.830Z,23.13
2023-02-22T21:34:40.603Z,21.13
2023-02-22T21:37:08.395Z,19.50
2023-02-22T21:39:35.490Z,30.15
2023-02-22T21:42:02.748Z,28.60
2023-02-22T21:44:29.475Z,25.77
2023-02-22T21:46:56.187Z,25.88
2023-02-22T21:49:23.296Z,21.35
2023-02-22T21:51:51.768Z,21.48
2023-02-22T21:54:18.825Z,29.42
2023-02-22T21:56:45.846Z,24.45
2023-02-22T21:59:21.014Z,28.75
2023-02-22T22:01:56.132Z,35.00
2023-02-22T22:04:27.650Z,23.60
2023-02-22T22:06:56.874Z,20.83
2023-02-22T22:09:24.776Z,23.70
2023-02-22T22:11:54.266Z,26.17
2023-02-22T22:14:23.290Z,26.42
2023-02-22T22:16:58.640Z,25.17
2023-02-22T22:19:26.762Z,28.05
2023-02-22T22:21:54.144Z,30.50
2023-02-22T22:24:22.747Z,32.13
2023-02-22T22:26:51.281Z,33.35
2023-02-22T22:29:18.724Z,26.52
2023-02-22T22:31:45.868Z,25.83
2023-02-22T22:34:12.705Z,36.33
2023-02-22T22:36:39.394Z,26.33
2023-02-22T22:39:14.794Z,31.00
2023-02-22T22:41:42.674Z,29.58
2023-02-22T22:44:09.935Z,26.08
2023-02-22T22:46:41.112Z,26.60
2023-02-22T22:49:13.408Z,26.73
2023-02-22T22:51:41.359Z,25.52
2023-02-22T22:54:09.534Z,24.33
2023-02-22T22:56:38.081Z,29.17
2023-02-22T22:59:07.866Z,30.08
2023-02-22T23:01:39.396Z,21.52
2023-02-22T23:04:12.233Z,26.98
2023-02-22T23:06:47.064Z,31.13
2023-02-22T23:09:27.483Z,23.95
2023-02-22T23:11:56.610Z,33.22
2023-02-22T23:14:26.974Z,29.83
2023-02-22T23:17:00.069Z,29.98
2023-02-22T23:19:26.655Z,32.53
2023-02-22T23:21:53.158Z,31.60
2023-02-22T23:24:21.169Z,31.05
2023-02-22T23:26:48.790Z,30.17
2023-02-22T23:29:20.490Z,38.03
2023-02-22T23:31:48.714Z,36.00
2023-02-22T23:34:21.348Z,33.95
2023-02-22T23:36:48.602Z,34.45
2023-02-22T23:39:17.742Z,36.28
2023-02-22T23:41:44.318Z,36.67
2023-02-22T23:44:17.668Z,42.25
2023-02-22T23:46:48.375Z,32.65
2023-02-22T23:49:20.433Z,41.85
2023-02-22T23:51:47.909Z,31.27
2023-02-22T23:54:16.813Z,37.90
2023-02-22T23:56:56.886Z,33.65
2023-02-22T23:59:25.445Z,36.72
